sensor_id;sensor_type;location;lat;lon;timestamp;temperature;humidity
11824;DHT22;5969;50.780;7.726;2023-04-15T00:02:25;4.60;99.90
11824;DHT22;5969;50.780;7.726;2023-04-15T00:04:52;4.50;99.90
11824;DHT22;5969;50.780;7.726;2023-04-15T00:07:19;4.30;99.90
11824;DHT22;5969;50.780;7.726;2023-04-15T00:09:45;4.30;99.90
11824;DHT22;5969;50.780;7.726;2023-04-15T00:12:12;4.30;99.90
11824;DHT22;5969;50.780;7.726;2023-04-15T00:14:40;4.30;99.90
11824;DHT22;5969;50.780;7.726;2023-04-15T00:17:07;4.30;99.90
11824;DHT22;5969;50.780;7.726;2023-04-15T00:19:33;4.40;99.90
11824;DHT22;5969;50.780;7.726;2023-04-15T00:22:00;4.40;99.90
11824;DHT22;5969;50.780;7.726;2023-04-15T00:24:27;4.40;99.90
11824;DHT22;5969;50.780;7.726;2023-04-15T00:26:55;4.40;99.90
11824;DHT22;5969;50.780;7.726;2023-04-15T00:29:22;4.30;99.90
11824;DHT22;5969;50.780;7.726;2023-04-15T00:31:50;4.30;99.90
11824;DHT22;5969;50.780;7.726;2023-04-15T00:34:17;4.30;99.90
11824;DHT22;5969;50.780;7.726;2023-04-15T00:36:44;4.20;99.90
11824;DHT22;5969;50.780;7.726;2023-04-15T00:39:11;4.20;99.90
11824;DHT22;5969;50.780;7.726;2023-04-15T00:41:38;4.20;99.90
11824;DHT22;5969;50.780;7.726;2023-04-15T00:44:05;4.20;99.90
11824;DHT22;5969;50.780;7.726;2023-04-15T00:46:35;4.20;99.90
11824;DHT22;5969;50.780;7.726;2023-04-15T00:49:05;4.30;99.90
11824;DHT22;5969;50.780;7.726;2023-04-15T00:51:32;4.30;99.90
11824;DHT22;5969;50.780;7.726;2023-04-15T00:54:01;4.10;99.90
11824;DHT22;5969;50.780;7.726;2023-04-15T00:56:29;4.10;99.90
11824;DHT22;5969;50.780;7.726;2023-04-15T00:58:56;4.20;99.90
11824;DHT22;5969;50.780;7.726;2023-04-15T06:44:35;4.30;99.90
11824;DHT22;5969;50.780;7.726;2023-04-15T06:47:11;4.50;99.90
11824;DHT22;5969;50.780;7.726;2023-04-15T06:49:41;4.60;99.90
11824;DHT22;5969;50.780;7.726;2023-04-15T06:52:09;4.80;99.90
11824;DHT22;5969;50.780;7.726;2023-04-15T06:54:37;4.90;99.90
11824;DHT22;5969;50.780;7.726;2023-04-15T06:57:15;5.00;99.90
11824;DHT22;5969;50.780;7.726;2023-04-15T06:59:44;5.20;99.90
11824;DHT22;5969;50.780;7.726;2023-04-15T07:17:45;6.20;99.90
11824;DHT22;5969;50.780;7.726;2023-04-15T07:20:49;6.40;99.90
11824;DHT22;5969;50.780;7.726;2023-04-15T07:23:23;6.60;99.90
11824;DHT22;5969;50.780;7.726;2023-04-15T07:25:52;6.80;99.90
11824;DHT22;5969;50.780;7.726;2023-04-15T07:28:20;6.90;99.90
11824;DHT22;5969;50.780;7.726;2023-04-15T07:31:01;6.90;99.90
11824;DHT22;5969;50.780;7.726;2023-04-15T07:33:38;7.10;99.90
11824;DHT22;5969;50.780;7.726;2023-04-15T07:36:19;7.20;99.90
11824;DHT22;5969;50.780;7.726;2023-04-15T07:38:46;7.40;99.90
11824;DHT22;5969;50.780;7.726;2023-04-15T07:41:13;7.50;99.90
11824;DHT22;5969;50.780;7.726;2023-04-15T07:43:40;7.60;99.90
11824;DHT22;5969;50.780;7.726;2023-04-15T07:46:08;7.80;99.90
11824;DHT22;5969;50.780;7.726;2023-04-15T07:48:34;7.90;99.90
11824;DHT22;5969;50.780;7.726;2023-04-15T07:51:03;7.90;99.90
11824;DHT22;5969;50.780;7.726;2023-04-15T07:53:48;8.00;99.90
11824;DHT22;5969;50.780;7.726;2023-04-15T07:56:17;8.00;99.90
11824;DHT22;5969;50.780;7.726;2023-04-15T07:58:47;8.00;99.90
11824;DHT22;5969;50.780;7.726;2023-04-15T08:01:14;8.00;99.90
11824;DHT22;5969;50.780;7.726;2023-04-15T08:03:51;8.20;99.90
11824;DHT22;5969;50.780;7.726;2023-04-15T08:06:19;8.80;99.90
11824;DHT22;5969;50.780;7.726;2023-04-15T08:08:48;9.00;99.90
11824;DHT22;5969;50.780;7.726;2023-04-15T08:11:45;9.50;99.90
11824;DHT22;5969;50.780;7.726;2023-04-15T08:15:15;9.70;99.90
11824;DHT22;5969;50.780;7.726;2023-04-15T08:17:51;10.10;99.90
11824;DHT22;5969;50.780;7.726;2023-04-15T08:20:58;10.30;99.90
11824;DHT22;5969;50.780;7.726;2023-04-15T08:23:29;10.40;99.90
11824;DHT22;5969;50.780;7.726;2023-04-15T08:25:55;10.40;99.90
11824;DHT22;5969;50.780;7.726;2023-04-15T08:31:28;10.80;99.90
11824;DHT22;5969;50.780;7.726;2023-04-15T08:34:06;11.00;99.90
11824;DHT22;5969;50.780;7.726;2023-04-15T09:29:12;12.80;99.00
11824;DHT22;5969;50.780;7.726;2023-04-15T10:54:37;14.60;97.10
11824;DHT22;5969;50.780;7.726;2023-04-15T10:57:12;14.20;96.80
11824;DHT22;5969;50.780;7.726;2023-04-15T11:00:02;13.90;97.20
11824;DHT22;5969;50.780;7.726;2023-04-15T11:02:44;13.70;97.30
11824;DHT22;5969;50.780;7.726;2023-04-15T11:05:13;13.70;97.80
11824;DHT22;5969;50.780;7.726;2023-04-15T11:07:47;13.50;97.60
11824;DHT22;5969;50.780;7.726;2023-04-15T11:13:25;13.20;97.90
11824;DHT22;5969;50.780;7.726;2023-04-15T11:15:58;13.00;98.70
11824;DHT22;5969;50.780;7.726;2023-04-15T11:18:28;12.90;98.40
11824;DHT22;5969;50.780;7.726;2023-04-15T11:20:57;12.70;98.70
11824;DHT22;5969;50.780;7.726;2023-04-15T11:23:30;12.70;98.70
11824;DHT22;5969;50.780;7.726;2023-04-15T11:25:58;12.50;98.80
11824;DHT22;5969;50.780;7.726;2023-04-15T11:28:30;12.30;98.90
11824;DHT22;5969;50.780;7.726;2023-04-15T11:31:02;12.30;99.30
11824;DHT22;5969;50.780;7.726;2023-04-15T11:33:33;12.20;99.70
11824;DHT22;5969;50.780;7.726;2023-04-15T11:36:05;12.20;99.50
11824;DHT22;5969;50.780;7.726;2023-04-15T11:38:33;12.10;99.70
11824;DHT22;5969;50.780;7.726;2023-04-15T11:41:00;12.10;99.90
11824;DHT22;5969;50.780;7.726;2023-04-15T11:43:31;12.00;99.90
11824;DHT22;5969;50.780;7.726;2023-04-15T11:46:01;11.80;99.90
11824;DHT22;5969;50.780;7.726;2023-04-15T11:48:35;11.70;99.90
11824;DHT22;5969;50.780;7.726;2023-04-15T11:51:04;11.50;99.90
11824;DHT22;5969;50.780;7.726;2023-04-15T11:53:41;11.40;99.90
11824;DHT22;5969;50.780;7.726;2023-04-15T11:56:09;11.40;99.90
11824;DHT22;5969;50.780;7.726;2023-04-15T11:58:38;11.20;99.90
11824;DHT22;5969;50.780;7.726;2023-04-15T12:01:06;11.10;99.90
11824;DHT22;5969;50.780;7.726;2023-04-15T12:03:37;11.20;99.90
11824;DHT22;5969;50.780;7.726;2023-04-15T12:06:08;11.20;99.90
11824;DHT22;5969;50.780;7.726;2023-04-15T12:08:59;11.10;99.90
11824;DHT22;5969;50.780;7.726;2023-04-15T12:11:35;11.10;99.90
11824;DHT22;5969;50.780;7.726;2023-04-15T12:14:07;11.00;99.90
11824;DHT22;5969;50.780;7.726;2023-04-15T12:16:35;10.90;99.90
11824;DHT22;5969;50.780;7.726;2023-04-15T12:19:05;10.80;99.90
11824;DHT22;5969;50.780;7.726;2023-04-15T12:21:34;10.80;99.90
11824;DHT22;5969;50.780;7.726;2023-04-15T12:24:02;10.60;99.90
11824;DHT22;5969;50.780;7.726;2023-04-15T12:26:33;10.50;99.90
11824;DHT22;5969;50.780;7.726;2023-04-15T12:29:01;10.50;99.90
11824;DHT22;5969;50.780;7.726;2023-04-15T12:31:30;10.60;99.90
11824;DHT22;5969;50.780;7.726;2023-04-15T12:33:57;10.60;99.90
11824;DHT22;5969;50.780;7.726;2023-04-15T12:36:25;10.70;99.90
11824;DHT22;5969;50.780;7.726;2023-04-15T12:38:52;10.70;99.90
11824;DHT22;5969;50.780;7.726;2023-04-15T12:41:20;10.70;99.90
11824;DHT22;5969;50.780;7.726;2023-04-15T12:43:49;10.50;99.90
11824;DHT22;5969;50.780;7.726;2023-04-15T12:46:16;10.30;99.90
11824;DHT22;5969;50.780;7.726;2023-04-15T12:48:46;10.50;99.90
11824;DHT22;5969;50.780;7.726;2023-04-15T12:51:13;10.40;99.90
11824;DHT22;5969;50.780;7.726;2023-04-15T12:53:40;10.40;99.90
11824;DHT22;5969;50.780;7.726;2023-04-15T12:59:33;10.30;99.90
11824;DHT22;5969;50.780;7.726;2023-04-15T13:02:00;10.20;99.90
11824;DHT22;5969;50.780;7.726;2023-04-15T13:04:29;10.20;99.90
11824;DHT22;5969;50.780;7.726;2023-04-15T13:06:56;10.10;99.90
11824;DHT22;5969;50.780;7.726;2023-04-15T13:09:25;10.10;99.90
11824;DHT22;5969;50.780;7.726;2023-04-15T13:11:52;10.30;99.90
11824;DHT22;5969;50.780;7.726;2023-04-15T13:14:22;10.30;99.90
11824;DHT22;5969;50.780;7.726;2023-04-15T13:16:56;10.00;99.90
11824;DHT22;5969;50.780;7.726;2023-04-15T13:19:24;9.90;99.90
11824;DHT22;5969;50.780;7.726;2023-04-15T13:21:54;9.90;99.90
11824;DHT22;5969;50.780;7.726;2023-04-15T13:24:21;9.90;99.90
11824;DHT22;5969;50.780;7.726;2023-04-15T13:26:48;9.90;99.90
11824;DHT22;5969;50.780;7.726;2023-04-15T13:29:15;10.10;99.90
11824;DHT22;5969;50.780;7.726;2023-04-15T13:31:42;10.10;99.90
11824;DHT22;5969;50.780;7.726;2023-04-15T13:34:09;10.00;99.90
11824;DHT22;5969;50.780;7.726;2023-04-15T13:36:36;10.00;99.90
11824;DHT22;5969;50.780;7.726;2023-04-15T13:39:06;9.80;99.90
11824;DHT22;5969;50.780;7.726;2023-04-15T13:41:33;9.90;99.90
11824;DHT22;5969;50.780;7.726;2023-04-15T13:44:01;10.10;99.90
11824;DHT22;5969;50.780;7.726;2023-04-15T13:46:37;10.10;99.90
11824;DHT22;5969;50.780;7.726;2023-04-15T13:49:05;10.10;99.90
11824;DHT22;5969;50.780;7.726;2023-04-15T13:51:32;10.10;99.90
11824;DHT22;5969;50.780;7.726;2023-04-15T13:54:00;10.00;99.90
11824;DHT22;5969;50.780;7.726;2023-04-15T13:56:29;9.80;99.90
11824;DHT22;5969;50.780;7.726;2023-04-15T13:58:56;9.80;99.90
11824;DHT22;5969;50.780;7.726;2023-04-15T14:01:32;9.80;99.90
11824;DHT22;5969;50.780;7.726;2023-04-15T14:04:02;9.80;99.90
11824;DHT22;5969;50.780;7.726;2023-04-15T14:06:29;9.60;99.90
11824;DHT22;5969;50.780;7.726;2023-04-15T14:08:56;9.70;99.90
11824;DHT22;5969;50.780;7.726;2023-04-15T14:11:25;9.80;99.90
11824;DHT22;5969;50.780;7.726;2023-04-15T14:14:02;9.90;99.90
11824;DHT22;5969;50.780;7.726;2023-04-15T14:16:32;9.90;99.90
11824;DHT22;5969;50.780;7.726;2023-04-15T14:19:01;9.90;99.90
11824;DHT22;5969;50.780;7.726;2023-04-15T14:21:30;9.50;99.90
11824;DHT22;5969;50.780;7.726;2023-04-15T14:23:58;9.70;99.90
11824;DHT22;5969;50.780;7.726;2023-04-15T14:26:31;9.60;99.90
11824;DHT22;5969;50.780;7.726;2023-04-15T14:29:01;9.50;99.90
11824;DHT22;5969;50.780;7.726;2023-04-15T14:31:31;9.60;99.90
11824;DHT22;5969;50.780;7.726;2023-04-15T14:34:00;9.50;99.90
11824;DHT22;5969;50.780;7.726;2023-04-15T14:36:30;9.50;99.90
11824;DHT22;5969;50.780;7.726;2023-04-15T14:38:59;9.60;99.90
11824;DHT22;5969;50.780;7.726;2023-04-15T14:41:26;9.40;99.90
11824;DHT22;5969;50.780;7.726;2023-04-15T14:43:53;9.40;99.90
11824;DHT22;5969;50.780;7.726;2023-04-15T14:46:22;9.30;99.90
11824;DHT22;5969;50.780;7.726;2023-04-15T14:48:49;9.30;99.90
11824;DHT22;5969;50.780;7.726;2023-04-15T14:51:21;9.30;99.90
11824;DHT22;5969;50.780;7.726;2023-04-15T14:53:49;9.30;99.90
11824;DHT22;5969;50.780;7.726;2023-04-15T14:56:16;9.30;99.90
11824;DHT22;5969;50.780;7.726;2023-04-15T14:58:46;9.40;99.90
11824;DHT22;5969;50.780;7.726;2023-04-15T15:01:13;9.30;99.90
11824;DHT22;5969;50.780;7.726;2023-04-15T15:03:42;9.20;99.90
11824;DHT22;5969;50.780;7.726;2023-04-15T15:06:11;9.30;99.90
11824;DHT22;5969;50.780;7.726;2023-04-15T15:08:40;9.40;99.90
11824;DHT22;5969;50.780;7.726;2023-04-15T15:11:07;9.10;99.90
11824;DHT22;5969;50.780;7.726;2023-04-15T15:13:34;9.20;99.90
11824;DHT22;5969;50.780;7.726;2023-04-15T15:16:05;9.10;99.90
11824;DHT22;5969;50.780;7.726;2023-04-15T15:18:36;9.00;99.90
11824;DHT22;5969;50.780;7.726;2023-04-15T15:21:05;9.00;99.90
11824;DHT22;5969;50.780;7.726;2023-04-15T15:23:35;9.00;99.90
11824;DHT22;5969;50.780;7.726;2023-04-15T15:26:04;9.00;99.90
11824;DHT22;5969;50.780;7.726;2023-04-15T15:28:32;8.90;99.90
11824;DHT22;5969;50.780;7.726;2023-04-15T15:30:59;8.90;99.90
11824;DHT22;5969;50.780;7.726;2023-04-15T15:33:28;8.90;99.90
11824;DHT22;5969;50.780;7.726;2023-04-15T15:35:55;8.80;99.90
11824;DHT22;5969;50.780;7.726;2023-04-15T15:38:24;9.00;99.90
11824;DHT22;5969;50.780;7.726;2023-04-15T15:40:52;8.90;99.90
11824;DHT22;5969;50.780;7.726;2023-04-15T15:43:21;9.00;99.90
11824;DHT22;5969;50.780;7.726;2023-04-15T15:45:50;8.90;99.90
11824;DHT22;5969;50.780;7.726;2023-04-15T15:48:20;9.00;99.90
11824;DHT22;5969;50.780;7.726;2023-04-15T15:50:47;9.00;99.90
11824;DHT22;5969;50.780;7.726;2023-04-15T15:53:16;9.00;99.90
11824;DHT22;5969;50.780;7.726;2023-04-15T15:55:46;8.70;99.90
11824;DHT22;5969;50.780;7.726;2023-04-15T15:58:16;8.70;99.90
11824;DHT22;5969;50.780;7.726;2023-04-15T16:00:47;8.70;99.90
11824;DHT22;5969;50.780;7.726;2023-04-15T16:03:14;8.60;99.90
11824;DHT22;5969;50.780;7.726;2023-04-15T16:05:48;8.60;99.90
11824;DHT22;5969;50.780;7.726;2023-04-15T16:08:15;8.60;99.90
11824;DHT22;5969;50.780;7.726;2023-04-15T16:10:42;8.70;99.90
11824;DHT22;5969;50.780;7.726;2023-04-15T16:13:13;8.60;99.90
11824;DHT22;5969;50.780;7.726;2023-04-15T16:15:46;8.60;99.90
11824;DHT22;5969;50.780;7.726;2023-04-15T16:18:14;8.60;99.90
11824;DHT22;5969;50.780;7.726;2023-04-15T16:20:41;8.70;99.90
11824;DHT22;5969;50.780;7.726;2023-04-15T16:23:19;8.70;99.90
11824;DHT22;5969;50.780;7.726;2023-04-15T16:25:55;8.70;99.90
11824;DHT22;5969;50.780;7.726;2023-04-15T16:28:24;8.60;99.90
11824;DHT22;5969;50.780;7.726;2023-04-15T16:30:58;8.60;99.90
11824;DHT22;5969;50.780;7.726;2023-04-15T16:33:27;8.70;99.90
11824;DHT22;5969;50.780;7.726;2023-04-15T16:35:55;8.70;99.90
11824;DHT22;5969;50.780;7.726;2023-04-15T16:38:22;8.60;99.90
11824;DHT22;5969;50.780;7.726;2023-04-15T16:40:49;8.60;99.90
11824;DHT22;5969;50.780;7.726;2023-04-15T16:43:20;8.70;99.90
11824;DHT22;5969;50.780;7.726;2023-04-15T16:45:54;8.70;99.90
11824;DHT22;5969;50.780;7.726;2023-04-15T16:48:22;8.70;99.90
11824;DHT22;5969;50.780;7.726;2023-04-15T16:50:49;8.50;99.90
11824;DHT22;5969;50.780;7.726;2023-04-15T16:53:16;8.50;99.90
11824;DHT22;5969;50.780;7.726;2023-04-15T16:55:58;8.50;99.90
11824;DHT22;5969;50.780;7.726;2023-04-15T16:58:29;8.50;99.90
11824;DHT22;5969;50.780;7.726;2023-04-15T17:01:07;8.50;99.90
11824;DHT22;5969;50.780;7.726;2023-04-15T17:03:42;8.60;99.90
11824;DHT22;5969;50.780;7.726;2023-04-15T17:06:15;8.50;99.90
11824;DHT22;5969;50.780;7.726;2023-04-15T17:08:51;8.50;99.90
11824;DHT22;5969;50.780;7.726;2023-04-15T17:11:32;8.60;99.90
11824;DHT22;5969;50.780;7.726;2023-04-15T17:14:01;8.60;99.90
11824;DHT22;5969;50.780;7.726;2023-04-15T17:16:30;8.40;99.90
11824;DHT22;5969;50.780;7.726;2023-04-15T17:18:57;8.50;99.90
11824;DHT22;5969;50.780;7.726;2023-04-15T17:21:25;8.50;99.90
11824;DHT22;5969;50.780;7.726;2023-04-15T17:23:53;8.40;99.90
11824;DHT22;5969;50.780;7.726;2023-04-15T17:26:25;8.30;99.90
11824;DHT22;5969;50.780;7.726;2023-04-15T17:29:05;8.40;99.90
11824;DHT22;5969;50.780;7.726;2023-04-15T17:31:53;8.30;99.90
11824;DHT22;5969;50.780;7.726;2023-04-15T17:34:51;8.20;99.90
11824;DHT22;5969;50.780;7.726;2023-04-15T17:37:19;8.20;99.90
11824;DHT22;5969;50.780;7.726;2023-04-15T17:39:48;8.30;99.90
11824;DHT22;5969;50.780;7.726;2023-04-15T17:42:15;8.20;99.90
11824;DHT22;5969;50.780;7.726;2023-04-15T17:44:42;8.30;99.90
11824;DHT22;5969;50.780;7.726;2023-04-15T17:47:16;8.30;99.90
11824;DHT22;5969;50.780;7.726;2023-04-15T17:49:47;8.30;99.90
11824;DHT22;5969;50.780;7.726;2023-04-15T17:52:15;8.20;99.90
11824;DHT22;5969;50.780;7.726;2023-04-15T17:54:48;8.20;99.90
11824;DHT22;5969;50.780;7.726;2023-04-15T17:57:23;8.20;99.90
11824;DHT22;5969;50.780;7.726;2023-04-15T17:59:50;8.30;99.90
11824;DHT22;5969;50.780;7.726;2023-04-15T18:02:21;8.30;99.90
11824;DHT22;5969;50.780;7.726;2023-04-15T18:04:48;8.50;99.90
11824;DHT22;5969;50.780;7.726;2023-04-15T18:07:25;8.30;99.90
11824;DHT22;5969;50.780;7.726;2023-04-15T18:09:54;8.30;99.90
11824;DHT22;5969;50.780;7.726;2023-04-15T18:12:21;8.30;99.90
11824;DHT22;5969;50.780;7.726;2023-04-15T18:18:15;8.20;99.90
11824;DHT22;5969;50.780;7.726;2023-04-15T18:20:59;8.30;99.90
11824;DHT22;5969;50.780;7.726;2023-04-15T18:23:33;8.20;99.90
11824;DHT22;5969;50.780;7.726;2023-04-15T18:26:10;8.30;99.90
11824;DHT22;5969;50.780;7.726;2023-04-15T18:28:40;8.30;99.90
11824;DHT22;5969;50.780;7.726;2023-04-15T18:31:18;8.30;99.90
11824;DHT22;5969;50.780;7.726;2023-04-15T18:33:54;8.10;99.90
11824;DHT22;5969;50.780;7.726;2023-04-15T18:36:21;8.20;99.90
11824;DHT22;5969;50.780;7.726;2023-04-15T18:38:51;8.20;99.90
11824;DHT22;5969;50.780;7.726;2023-04-15T18:41:18;8.20;99.90
11824;DHT22;5969;50.780;7.726;2023-04-15T18:43:48;8.20;99.90
11824;DHT22;5969;50.780;7.726;2023-04-15T18:46:15;8.30;99.90
11824;DHT22;5969;50.780;7.726;2023-04-15T18:48:43;8.20;99.90
11824;DHT22;5969;50.780;7.726;2023-04-15T18:54:27;8.20;99.90
11824;DHT22;5969;50.780;7.726;2023-04-15T18:56:54;8.30;99.90
11824;DHT22;5969;50.780;7.726;2023-04-15T18:59:29;8.30;99.90
11824;DHT22;5969;50.780;7.726;2023-04-15T19:02:03;8.30;99.90
11824;DHT22;5969;50.780;7.726;2023-04-15T19:04:37;8.30;99.90
11824;DHT22;5969;50.780;7.726;2023-04-15T19:07:04;8.30;99.90
11824;DHT22;5969;50.780;7.726;2023-04-15T19:12:26;8.20;99.90
11824;DHT22;5969;50.780;7.726;2023-04-15T19:14:53;8.20;99.90
11824;DHT22;5969;50.780;7.726;2023-04-15T19:17:20;8.20;99.90
11824;DHT22;5969;50.780;7.726;2023-04-15T19:19:51;8.30;99.90
11824;DHT22;5969;50.780;7.726;2023-04-15T19:22:24;8.20;99.90
11824;DHT22;5969;50.780;7.726;2023-04-15T19:24:55;8.30;99.90
11824;DHT22;5969;50.780;7.726;2023-04-15T19:27:23;8.30;99.90
11824;DHT22;5969;50.780;7.726;2023-04-15T19:29:50;8.20;99.90
11824;DHT22;5969;50.780;7.726;2023-04-15T19:32:17;8.20;99.90
11824;DHT22;5969;50.780;7.726;2023-04-15T19:34:44;8.30;99.90
11824;DHT22;5969;50.780;7.726;2023-04-15T19:37:13;8.30;99.90
11824;DHT22;5969;50.780;7.726;2023-04-15T19:39:43;8.20;99.90
11824;DHT22;5969;50.780;7.726;2023-04-15T19:42:12;8.10;99.90
11824;DHT22;5969;50.780;7.726;2023-04-15T19:44:40;8.20;99.90
11824;DHT22;5969;50.780;7.726;2023-04-15T19:47:31;8.00;99.90
11824;DHT22;5969;50.780;7.726;2023-04-15T19:50:11;8.10;99.90
11824;DHT22;5969;50.780;7.726;2023-04-15T19:52:41;8.10;99.90
11824;DHT22;5969;50.780;7.726;2023-04-15T19:55:12;8.10;99.90
11824;DHT22;5969;50.780;7.726;2023-04-15T19:57:44;8.10;99.90
11824;DHT22;5969;50.780;7.726;2023-04-15T20:00:19;8.10;99.90
11824;DHT22;5969;50.780;7.726;2023-04-15T20:02:52;8.00;99.90
11824;DHT22;5969;50.780;7.726;2023-04-15T20:05:36;8.10;99.90
11824;DHT22;5969;50.780;7.726;2023-04-15T20:08:09;8.10;99.90
11824;DHT22;5969;50.780;7.726;2023-04-15T20:10:36;8.10;99.90
11824;DHT22;5969;50.780;7.726;2023-04-15T20:13:04;8.10;99.90
11824;DHT22;5969;50.780;7.726;2023-04-15T20:15:31;8.10;99.90
11824;DHT22;5969;50.780;7.726;2023-04-15T20:18:02;8.00;99.90
11824;DHT22;5969;50.780;7.726;2023-04-15T20:20:38;8.00;99.90
11824;DHT22;5969;50.780;7.726;2023-04-15T20:23:10;8.00;99.90
11824;DHT22;5969;50.780;7.726;2023-04-15T20:25:37;8.00;99.90
11824;DHT22;5969;50.780;7.726;2023-04-15T20:28:08;8.20;99.90
11824;DHT22;5969;50.780;7.726;2023-04-15T20:30:35;8.10;99.90
11824;DHT22;5969;50.780;7.726;2023-04-15T20:33:09;8.10;99.90
11824;DHT22;5969;50.780;7.726;2023-04-15T20:35:42;8.10;99.90
11824;DHT22;5969;50.780;7.726;2023-04-15T20:38:22;8.10;99.90
11824;DHT22;5969;50.780;7.726;2023-04-15T20:40:49;8.10;99.90
11824;DHT22;5969;50.780;7.726;2023-04-15T20:43:18;8.00;99.90
11824;DHT22;5969;50.780;7.726;2023-04-15T20:45:51;8.00;99.90
11824;DHT22;5969;50.780;7.726;2023-04-15T20:48:26;8.10;99.90
11824;DHT22;5969;50.780;7.726;2023-04-15T20:51:00;8.00;99.90
11824;DHT22;5969;50.780;7.726;2023-04-15T20:53:45;7.90;99.90
11824;DHT22;5969;50.780;7.726;2023-04-15T20:56:15;8.00;99.90
11824;DHT22;5969;50.780;7.726;2023-04-15T20:58:43;8.00;99.90
11824;DHT22;5969;50.780;7.726;2023-04-15T21:01:10;7.90;99.90
11824;DHT22;5969;50.780;7.726;2023-04-15T21:03:38;8.00;99.90
11824;DHT22;5969;50.780;7.726;2023-04-15T21:06:05;8.00;99.90
11824;DHT22;5969;50.780;7.726;2023-04-15T21:08:33;7.90;99.90
11824;DHT22;5969;50.780;7.726;2023-04-15T21:11:01;7.90;99.90
11824;DHT22;5969;50.780;7.726;2023-04-15T21:13:28;7.90;99.90
11824;DHT22;5969;50.780;7.726;2023-04-15T21:15:56;7.80;99.90
11824;DHT22;5969;50.780;7.726;2023-04-15T21:18:23;7.80;99.90
11824;DHT22;5969;50.780;7.726;2023-04-15T21:20:55;7.80;99.90
11824;DHT22;5969;50.780;7.726;2023-04-15T21:23:26;7.90;99.90
11824;DHT22;5969;50.780;7.726;2023-04-15T21:25:54;8.00;99.90
11824;DHT22;5969;50.780;7.726;2023-04-15T21:28:25;8.00;99.90
11824;DHT22;5969;50.780;7.726;2023-04-15T21:30:53;7.90;99.90
11824;DHT22;5969;50.780;7.726;2023-04-15T21:33:21;8.00;99.90
11824;DHT22;5969;50.780;7.726;2023-04-15T21:35:48;8.00;99.90
11824;DHT22;5969;50.780;7.726;2023-04-15T21:38:25;8.10;99.90
11824;DHT22;5969;50.780;7.726;2023-04-15T21:40:52;8.00;99.90
11824;DHT22;5969;50.780;7.726;2023-04-15T21:43:45;8.00;99.90
11824;DHT22;5969;50.780;7.726;2023-04-15T21:46:25;8.00;99.90
11824;DHT22;5969;50.780;7.726;2023-04-15T21:48:58;8.10;99.90
11824;DHT22;5969;50.780;7.726;2023-04-15T21:51:34;8.00;99.90
11824;DHT22;5969;50.780;7.726;2023-04-15T21:54:05;8.00;99.90
11824;DHT22;5969;50.780;7.726;2023-04-15T21:56:50;8.00;99.90
11824;DHT22;5969;50.780;7.726;2023-04-15T21:59:21;7.90;99.90
11824;DHT22;5969;50.780;7.726;2023-04-15T22:01:48;7.90;99.90
11824;DHT22;5969;50.780;7.726;2023-04-15T22:04:19;7.90;99.90
11824;DHT22;5969;50.780;7.726;2023-04-15T22:06:48;7.90;99.90
11824;DHT22;5969;50.780;7.726;2023-04-15T22:09:25;7.90;99.90
11824;DHT22;5969;50.780;7.726;2023-04-15T22:12:08;8.00;99.90
11824;DHT22;5969;50.780;7.726;2023-04-15T22:16:44;8.00;99.90
11824;DHT22;5969;50.780;7.726;2023-04-15T22:17:42;8.00;99.90
11824;DHT22;5969;50.780;7.726;2023-04-15T22:20:11;8.00;99.90
11824;DHT22;5969;50.780;7.726;2023-04-15T22:22:40;8.00;99.90
11824;DHT22;5969;50.780;7.726;2023-04-15T22:25:22;8.00;99.90
11824;DHT22;5969;50.780;7.726;2023-04-15T22:28:13;8.00;99.90
11824;DHT22;5969;50.780;7.726;2023-04-15T22:30:53;8.00;99.90
11824;DHT22;5969;50.780;7.726;2023-04-15T22:33:43;8.00;99.90
11824;DHT22;5969;50.780;7.726;2023-04-15T22:36:38;8.00;99.90
11824;DHT22;5969;50.780;7.726;2023-04-15T22:39:07;7.90;99.90
11824;DHT22;5969;50.780;7.726;2023-04-15T22:41:36;7.90;99.90
11824;DHT22;5969;50.780;7.726;2023-04-15T22:44:18;8.00;99.90
11824;DHT22;5969;50.780;7.726;2023-04-15T22:50:26;7.90;99.90
11824;DHT22;5969;50.780;7.726;2023-04-15T23:14:44;7.90;99.90
11824;DHT22;5969;50.780;7.726;2023-04-15T23:18:11;7.90;99.90
11824;DHT22;5969;50.780;7.726;2023-04-15T23:21:23;7.90;99.90
11824;DHT22;5969;50.780;7.726;2023-04-15T23:23:58;7.90;99.90
11824;DHT22;5969;50.780;7.726;2023-04-15T23:32:56;7.70;99.90
11824;DHT22;5969;50.780;7.726;2023-04-15T23:35:38;7.70;99.90
11824;DHT22;5969;50.780;7.726;2023-04-15T23:38:19;7.70;99.90
11824;DHT22;5969;50.780;7.726;2023-04-15T23:41:09;7.70;99.90
11824;DHT22;5969;50.780;7.726;2023-04-15T23:47:27;7.70;99.90
11824;DHT22;5969;50.780;7.726;2023-04-15T23:53:56;7.70;99.90
11824;DHT22;5969;50.780;7.726;2023-04-15T23:56:59;7.70;99.90
